sensor_id;sensor_type;location;lat;lon;timestamp;P1;durP1;ratioP1;P2;durP2;ratioP2
25525;SDS011;13424;48.424;11.258;2022-07-23T00:01:03;18.20;;;15.20;;
25525;SDS011;13424;48.424;11.258;2022-07-23T00:03:29;16.15;;;14.43;;
25525;SDS011;13424;48.424;11.258;2022-07-23T00:05:55;17.42;;;15.05;;
25525;SDS011;13424;48.424;11.258;2022-07-23T00:08:21;17.00;;;14.80;;
25525;SDS011;13424;48.424;11.258;2022-07-23T00:10:47;21.63;;;14.15;;
25525;SDS011;13424;48.424;11.258;2022-07-23T00:13:13;17.40;;;14.57;;
25525;SDS011;13424;48.424;11.258;2022-07-23T00:15:41;18.10;;;14.32;;
25525;SDS011;13424;48.424;11.258;2022-07-23T00:18:08;16.33;;;14.73;;
25525;SDS011;13424;48.424;11.258;2022-07-23T00:20:34;16.63;;;14.55;;
25525;SDS011;13424;48.424;11.258;2022-07-23T00:23:00;16.90;;;14.82;;
25525;SDS011;13424;48.424;11.258;2022-07-23T00:25:27;16.65;;;14.63;;
25525;SDS011;13424;48.424;11.258;2022-07-23T00:27:53;19.27;;;16.33;;
25525;SDS011;13424;48.424;11.258;2022-07-23T00:30:19;17.15;;;14.75;;
25525;SDS011;13424;48.424;11.258;2022-07-23T00:32:56;19.40;;;14.73;;
25525;SDS011;13424;48.424;11.258;2022-07-23T00:35:26;17.02;;;14.75;;
25525;SDS011;13424;48.424;11.258;2022-07-23T00:37:55;17.75;;;15.80;;
25525;SDS011;13424;48.424;11.258;2022-07-23T00:40:22;17.60;;;15.73;;
25525;SDS011;13424;48.424;11.258;2022-07-23T00:42:49;17.50;;;14.73;;
25525;SDS011;13424;48.424;11.258;2022-07-23T00:45:15;21.83;;;15.18;;
25525;SDS011;13424;48.424;11.258;2022-07-23T00:51:12;24.27;;;16.92;;
25525;SDS011;13424;48.424;11.258;2022-07-23T00:53:41;21.55;;;16.90;;
25525;SDS011;13424;48.424;11.258;2022-07-23T00:56:08;19.85;;;16.15;;
25525;SDS011;13424;48.424;11.258;2022-07-23T00:58:35;17.95;;;13.98;;
25525;SDS011;13424;48.424;11.258;2022-07-23T01:01:04;12.80;;;11.45;;
25525;SDS011;13424;48.424;11.258;2022-07-23T01:03:30;13.85;;;10.85;;
25525;SDS011;13424;48.424;11.258;2022-07-23T01:05:56;11.68;;;9.85;;
25525;SDS011;13424;48.424;11.258;2022-07-23T01:08:24;18.48;;;11.50;;
25525;SDS011;13424;48.424;11.258;2022-07-23T01:10:50;22.45;;;9.90;;
25525;SDS011;13424;48.424;11.258;2022-07-23T01:13:16;14.27;;;8.30;;
25525;SDS011;13424;48.424;11.258;2022-07-23T01:15:42;10.90;;;8.27;;
25525;SDS011;13424;48.424;11.258;2022-07-23T01:18:09;10.73;;;8.25;;
25525;SDS011;13424;48.424;11.258;2022-07-23T01:20:37;12.45;;;8.95;;
25525;SDS011;13424;48.424;11.258;2022-07-23T01:23:04;12.63;;;9.35;;
25525;SDS011;13424;48.424;11.258;2022-07-23T01:25:31;10.85;;;9.02;;
25525;SDS011;13424;48.424;11.258;2022-07-23T01:28:00;15.38;;;9.15;;
25525;SDS011;13424;48.424;11.258;2022-07-23T01:30:26;15.45;;;9.35;;
25525;SDS011;13424;48.424;11.258;2022-07-23T01:32:54;13.75;;;10.48;;
25525;SDS011;13424;48.424;11.258;2022-07-23T01:35:20;17.77;;;10.70;;
25525;SDS011;13424;48.424;11.258;2022-07-23T01:37:48;13.02;;;11.60;;
25525;SDS011;13424;48.424;11.258;2022-07-23T01:40:16;16.15;;;12.82;;
25525;SDS011;13424;48.424;11.258;2022-07-23T01:42:42;15.38;;;11.35;;
25525;SDS011;13424;48.424;11.258;2022-07-23T01:45:10;13.68;;;11.52;;
25525;SDS011;13424;48.424;11.258;2022-07-23T01:51:26;14.98;;;12.02;;
25525;SDS011;13424;48.424;11.258;2022-07-23T01:53:59;15.93;;;12.43;;
25525;SDS011;13424;48.424;11.258;2022-07-23T01:56:25;17.70;;;13.52;;
25525;SDS011;13424;48.424;11.258;2022-07-23T01:58:51;16.67;;;13.15;;
25525;SDS011;13424;48.424;11.258;2022-07-23T02:01:19;17.15;;;13.25;;
25525;SDS011;13424;48.424;11.258;2022-07-23T02:03:45;16.92;;;13.30;;
25525;SDS011;13424;48.424;11.258;2022-07-23T02:06:11;17.20;;;13.73;;
25525;SDS011;13424;48.424;11.258;2022-07-23T02:08:37;15.60;;;12.43;;
25525;SDS011;13424;48.424;11.258;2022-07-23T02:11:03;16.25;;;13.48;;
25525;SDS011;13424;48.424;11.258;2022-07-23T02:13:32;14.70;;;13.13;;
25525;SDS011;13424;48.424;11.258;2022-07-23T02:15:59;18.88;;;13.15;;
25525;SDS011;13424;48.424;11.258;2022-07-23T02:18:25;17.15;;;13.45;;
25525;SDS011;13424;48.424;11.258;2022-07-23T02:20:51;16.35;;;13.40;;
25525;SDS011;13424;48.424;11.258;2022-07-23T02:23:17;18.70;;;13.45;;
25525;SDS011;13424;48.424;11.258;2022-07-23T02:25:43;23.00;;;14.50;;
25525;SDS011;13424;48.424;11.258;2022-07-23T02:28:09;17.95;;;13.55;;
25525;SDS011;13424;48.424;11.258;2022-07-23T02:30:36;17.63;;;12.45;;
25525;SDS011;13424;48.424;11.258;2022-07-23T02:33:03;20.85;;;13.75;;
25525;SDS011;13424;48.424;11.258;2022-07-23T02:35:29;19.27;;;12.40;;
25525;SDS011;13424;48.424;11.258;2022-07-23T02:37:58;14.48;;;12.23;;
25525;SDS011;13424;48.424;11.258;2022-07-23T02:40:26;19.95;;;13.93;;
25525;SDS011;13424;48.424;11.258;2022-07-23T02:42:52;22.02;;;13.25;;
25525;SDS011;13424;48.424;11.258;2022-07-23T02:45:18;15.95;;;13.45;;
25525;SDS011;13424;48.424;11.258;2022-07-23T02:47:44;18.02;;;13.02;;
25525;SDS011;13424;48.424;11.258;2022-07-23T02:50:11;20.00;;;12.90;;
25525;SDS011;13424;48.424;11.258;2022-07-23T02:52:38;16.98;;;13.18;;
25525;SDS011;13424;48.424;11.258;2022-07-23T02:55:05;17.25;;;11.88;;
25525;SDS011;13424;48.424;11.258;2022-07-23T02:57:32;14.63;;;12.93;;
25525;SDS011;13424;48.424;11.258;2022-07-23T02:59:58;19.15;;;13.63;;
25525;SDS011;13424;48.424;11.258;2022-07-23T03:02:24;18.35;;;13.90;;
25525;SDS011;13424;48.424;11.258;2022-07-23T03:04:50;18.00;;;13.57;;
25525;SDS011;13424;48.424;11.258;2022-07-23T03:07:17;14.15;;;11.45;;
25525;SDS011;13424;48.424;11.258;2022-07-23T03:09:43;13.52;;;11.60;;
25525;SDS011;13424;48.424;11.258;2022-07-23T03:12:09;12.95;;;11.05;;
25525;SDS011;13424;48.424;11.258;2022-07-23T03:14:35;14.13;;;9.90;;
25525;SDS011;13424;48.424;11.258;2022-07-23T03:17:01;13.82;;;10.20;;
25525;SDS011;13424;48.424;11.258;2022-07-23T03:19:27;15.73;;;11.70;;
25525;SDS011;13424;48.424;11.258;2022-07-23T03:21:53;18.85;;;12.18;;
25525;SDS011;13424;48.424;11.258;2022-07-23T03:24:19;14.63;;;10.63;;
25525;SDS011;13424;48.424;11.258;2022-07-23T03:26:45;16.25;;;12.13;;
25525;SDS011;13424;48.424;11.258;2022-07-23T03:29:12;16.25;;;12.27;;
25525;SDS011;13424;48.424;11.258;2022-07-23T03:31:38;17.25;;;12.48;;
25525;SDS011;13424;48.424;11.258;2022-07-23T03:34:04;17.77;;;11.27;;
25525;SDS011;13424;48.424;11.258;2022-07-23T03:36:30;16.75;;;11.93;;
25525;SDS011;13424;48.424;11.258;2022-07-23T03:42:19;19.58;;;11.63;;
25525;SDS011;13424;48.424;11.258;2022-07-23T03:44:45;16.45;;;11.32;;
25525;SDS011;13424;48.424;11.258;2022-07-23T03:47:11;21.55;;;14.10;;
25525;SDS011;13424;48.424;11.258;2022-07-23T03:49:38;14.65;;;12.00;;
25525;SDS011;13424;48.424;11.258;2022-07-23T03:52:04;14.82;;;10.52;;
25525;SDS011;13424;48.424;11.258;2022-07-23T03:54:30;12.70;;;10.35;;
25525;SDS011;13424;48.424;11.258;2022-07-23T03:56:56;18.92;;;11.80;;
25525;SDS011;13424;48.424;11.258;2022-07-23T03:59:22;14.77;;;10.93;;
25525;SDS011;13424;48.424;11.258;2022-07-23T04:01:48;14.23;;;10.80;;
25525;SDS011;13424;48.424;11.258;2022-07-23T04:04:15;13.73;;;10.25;;
25525;SDS011;13424;48.424;11.258;2022-07-23T04:06:42;11.73;;;10.43;;
25525;SDS011;13424;48.424;11.258;2022-07-23T04:09:08;11.88;;;10.38;;
25525;SDS011;13424;48.424;11.258;2022-07-23T04:11:34;12.70;;;10.88;;
25525;SDS011;13424;48.424;11.258;2022-07-23T04:14:00;11.20;;;10.10;;
25525;SDS011;13424;48.424;11.258;2022-07-23T04:16:26;11.27;;;10.07;;
25525;SDS011;13424;48.424;11.258;2022-07-23T04:18:52;11.82;;;9.63;;
25525;SDS011;13424;48.424;11.258;2022-07-23T04:21:20;12.35;;;10.40;;
25525;SDS011;13424;48.424;11.258;2022-07-23T04:23:47;12.68;;;10.40;;
25525;SDS011;13424;48.424;11.258;2022-07-23T04:26:13;13.52;;;11.02;;
25525;SDS011;13424;48.424;11.258;2022-07-23T04:28:40;12.73;;;10.13;;
25525;SDS011;13424;48.424;11.258;2022-07-23T04:31:06;11.82;;;10.30;;
25525;SDS011;13424;48.424;11.258;2022-07-23T04:33:35;13.68;;;10.40;;
25525;SDS011;13424;48.424;11.258;2022-07-23T04:36:04;10.77;;;9.32;;
25525;SDS011;13424;48.424;11.258;2022-07-23T04:38:31;9.70;;;8.70;;
25525;SDS011;13424;48.424;11.258;2022-07-23T04:41:00;11.23;;;9.40;;
25525;SDS011;13424;48.424;11.258;2022-07-23T04:43:26;10.07;;;8.85;;
25525;SDS011;13424;48.424;11.258;2022-07-23T04:45:53;10.93;;;8.38;;
25525;SDS011;13424;48.424;11.258;2022-07-23T04:48:19;10.10;;;8.13;;
25525;SDS011;13424;48.424;11.258;2022-07-23T04:50:49;9.25;;;7.75;;
25525;SDS011;13424;48.424;11.258;2022-07-23T04:53:21;8.80;;;7.80;;
25525;SDS011;13424;48.424;11.258;2022-07-23T04:55:50;10.55;;;7.85;;
25525;SDS011;13424;48.424;11.258;2022-07-23T04:58:16;8.40;;;6.85;;
25525;SDS011;13424;48.424;11.258;2022-07-23T05:00:42;9.25;;;8.00;;
25525;SDS011;13424;48.424;11.258;2022-07-23T05:03:09;8.20;;;7.13;;
25525;SDS011;13424;48.424;11.258;2022-07-23T05:05:36;11.38;;;8.32;;
25525;SDS011;13424;48.424;11.258;2022-07-23T05:08:12;9.38;;;8.32;;
25525;SDS011;13424;48.424;11.258;2022-07-23T05:10:41;9.35;;;7.63;;
25525;SDS011;13424;48.424;11.258;2022-07-23T05:13:07;11.75;;;7.90;;
25525;SDS011;13424;48.424;11.258;2022-07-23T05:15:33;12.65;;;8.05;;
25525;SDS011;13424;48.424;11.258;2022-07-23T05:18:02;12.05;;;8.52;;
25525;SDS011;13424;48.424;11.258;2022-07-23T05:20:28;10.68;;;8.95;;
25525;SDS011;13424;48.424;11.258;2022-07-23T05:22:54;10.75;;;8.48;;
25525;SDS011;13424;48.424;11.258;2022-07-23T05:25:20;15.65;;;8.88;;
25525;SDS011;13424;48.424;11.258;2022-07-23T05:27:46;11.13;;;8.32;;
25525;SDS011;13424;48.424;11.258;2022-07-23T05:30:13;11.32;;;7.57;;
25525;SDS011;13424;48.424;11.258;2022-07-23T05:32:41;12.13;;;8.77;;
25525;SDS011;13424;48.424;11.258;2022-07-23T05:38:26;10.50;;;9.35;;
25525;SDS011;13424;48.424;11.258;2022-07-23T05:40:54;15.07;;;10.43;;
25525;SDS011;13424;48.424;11.258;2022-07-23T05:43:22;12.40;;;8.82;;
25525;SDS011;13424;48.424;11.258;2022-07-23T05:45:49;13.43;;;7.97;;
25525;SDS011;13424;48.424;11.258;2022-07-23T05:48:15;10.88;;;8.68;;
25525;SDS011;13424;48.424;11.258;2022-07-23T05:50:51;17.30;;;8.23;;
25525;SDS011;13424;48.424;11.258;2022-07-23T05:53:27;13.52;;;8.35;;
25525;SDS011;13424;48.424;11.258;2022-07-23T05:55:59;10.25;;;7.15;;
25525;SDS011;13424;48.424;11.258;2022-07-23T05:58:25;10.13;;;7.20;;
25525;SDS011;13424;48.424;11.258;2022-07-23T06:00:51;9.07;;;7.38;;
25525;SDS011;13424;48.424;11.258;2022-07-23T06:03:17;10.32;;;7.40;;
25525;SDS011;13424;48.424;11.258;2022-07-23T06:05:43;10.55;;;7.45;;
25525;SDS011;13424;48.424;11.258;2022-07-23T06:08:09;9.05;;;6.50;;
25525;SDS011;13424;48.424;11.258;2022-07-23T06:10:35;10.35;;;7.28;;
25525;SDS011;13424;48.424;11.258;2022-07-23T06:13:02;7.88;;;7.07;;
25525;SDS011;13424;48.424;11.258;2022-07-23T06:15:28;11.27;;;7.30;;
25525;SDS011;13424;48.424;11.258;2022-07-23T06:17:55;7.28;;;6.57;;
25525;SDS011;13424;48.424;11.258;2022-07-23T06:20:22;11.57;;;6.55;;
25525;SDS011;13424;48.424;11.258;2022-07-23T06:22:48;9.75;;;7.35;;
25525;SDS011;13424;48.424;11.258;2022-07-23T06:25:14;8.55;;;7.50;;
25525;SDS011;13424;48.424;11.258;2022-07-23T06:27:46;7.82;;;7.03;;
25525;SDS011;13424;48.424;11.258;2022-07-23T06:30:15;6.97;;;6.10;;
25525;SDS011;13424;48.424;11.258;2022-07-23T06:32:46;9.40;;;7.55;;
25525;SDS011;13424;48.424;11.258;2022-07-23T06:35:13;8.38;;;7.15;;
25525;SDS011;13424;48.424;11.258;2022-07-23T06:37:40;15.70;;;7.68;;
25525;SDS011;13424;48.424;11.258;2022-07-23T06:40:06;20.48;;;7.80;;
25525;SDS011;13424;48.424;11.258;2022-07-23T06:42:36;14.30;;;8.20;;
25525;SDS011;13424;48.424;11.258;2022-07-23T06:45:06;20.70;;;8.70;;
25525;SDS011;13424;48.424;11.258;2022-07-23T06:47:36;10.63;;;8.57;;
25525;SDS011;13424;48.424;11.258;2022-07-23T06:50:03;12.32;;;8.93;;
25525;SDS011;13424;48.424;11.258;2022-07-23T06:52:30;12.73;;;9.02;;
25525;SDS011;13424;48.424;11.258;2022-07-23T06:54:56;11.00;;;9.85;;
25525;SDS011;13424;48.424;11.258;2022-07-23T06:57:22;13.43;;;9.43;;
25525;SDS011;13424;48.424;11.258;2022-07-23T06:59:51;13.10;;;8.82;;
25525;SDS011;13424;48.424;11.258;2022-07-23T07:02:54;11.68;;;10.38;;
25525;SDS011;13424;48.424;11.258;2022-07-23T07:05:20;14.48;;;10.40;;
25525;SDS011;13424;48.424;11.258;2022-07-23T07:07:46;15.77;;;9.45;;
25525;SDS011;13424;48.424;11.258;2022-07-23T07:10:12;12.05;;;10.30;;
25525;SDS011;13424;48.424;11.258;2022-07-23T07:12:41;12.27;;;10.45;;
25525;SDS011;13424;48.424;11.258;2022-07-23T07:15:08;11.13;;;9.93;;
25525;SDS011;13424;48.424;11.258;2022-07-23T07:17:34;11.43;;;9.98;;
25525;SDS011;13424;48.424;11.258;2022-07-23T07:20:00;14.65;;;10.38;;
25525;SDS011;13424;48.424;11.258;2022-07-23T07:22:29;14.68;;;9.65;;
25525;SDS011;13424;48.424;11.258;2022-07-23T07:24:55;12.93;;;10.30;;
25525;SDS011;13424;48.424;11.258;2022-07-23T07:27:21;10.90;;;9.75;;
25525;SDS011;13424;48.424;11.258;2022-07-23T07:29:47;13.07;;;9.77;;
25525;SDS011;13424;48.424;11.258;2022-07-23T07:32:13;13.15;;;9.73;;
25525;SDS011;13424;48.424;11.258;2022-07-23T07:34:39;11.18;;;10.05;;
25525;SDS011;13424;48.424;11.258;2022-07-23T07:37:05;12.52;;;10.02;;
25525;SDS011;13424;48.424;11.258;2022-07-23T07:39:31;13.43;;;11.25;;
25525;SDS011;13424;48.424;11.258;2022-07-23T07:41:57;10.40;;;9.27;;
25525;SDS011;13424;48.424;11.258;2022-07-23T07:44:23;13.55;;;10.27;;
25525;SDS011;13424;48.424;11.258;2022-07-23T07:46:49;13.38;;;9.75;;
25525;SDS011;13424;48.424;11.258;2022-07-23T07:49:15;14.05;;;10.30;;
25525;SDS011;13424;48.424;11.258;2022-07-23T07:51:45;12.07;;;9.98;;
25525;SDS011;13424;48.424;11.258;2022-07-23T07:54:12;17.67;;;10.57;;
25525;SDS011;13424;48.424;11.258;2022-07-23T07:56:38;17.35;;;11.73;;
25525;SDS011;13424;48.424;11.258;2022-07-23T07:59:05;12.10;;;10.50;;
25525;SDS011;13424;48.424;11.258;2022-07-23T08:01:31;14.40;;;11.15;;
25525;SDS011;13424;48.424;11.258;2022-07-23T08:07:32;12.68;;;10.70;;
25525;SDS011;13424;48.424;11.258;2022-07-23T08:09:58;13.82;;;10.40;;
25525;SDS011;13424;48.424;11.258;2022-07-23T08:12:24;13.70;;;10.35;;
25525;SDS011;13424;48.424;11.258;2022-07-23T08:14:50;12.23;;;10.43;;
25525;SDS011;13424;48.424;11.258;2022-07-23T08:17:16;15.23;;;12.10;;
25525;SDS011;13424;48.424;11.258;2022-07-23T08:19:42;23.75;;;11.40;;
25525;SDS011;13424;48.424;11.258;2022-07-23T08:22:08;12.48;;;10.70;;
25525;SDS011;13424;48.424;11.258;2022-07-23T08:24:34;17.05;;;11.25;;
25525;SDS011;13424;48.424;11.258;2022-07-23T08:27:00;22.30;;;11.38;;
25525;SDS011;13424;48.424;11.258;2022-07-23T08:29:26;14.35;;;11.10;;
25525;SDS011;13424;48.424;11.258;2022-07-23T08:32:26;15.68;;;11.68;;
25525;SDS011;13424;48.424;11.258;2022-07-23T08:34:52;14.80;;;10.90;;
25525;SDS011;13424;48.424;11.258;2022-07-23T08:37:18;12.18;;;10.90;;
25525;SDS011;13424;48.424;11.258;2022-07-23T08:39:44;19.38;;;11.23;;
25525;SDS011;13424;48.424;11.258;2022-07-23T08:42:10;15.77;;;12.05;;
25525;SDS011;13424;48.424;11.258;2022-07-23T08:44:42;16.02;;;11.63;;
25525;SDS011;13424;48.424;11.258;2022-07-23T08:47:11;13.20;;;11.57;;
25525;SDS011;13424;48.424;11.258;2022-07-23T08:49:38;13.38;;;11.50;;
25525;SDS011;13424;48.424;11.258;2022-07-23T08:52:06;14.85;;;11.50;;
25525;SDS011;13424;48.424;11.258;2022-07-23T08:54:32;14.00;;;12.60;;
25525;SDS011;13424;48.424;11.258;2022-07-23T08:57:01;13.90;;;11.05;;
25525;SDS011;13424;48.424;11.258;2022-07-23T08:59:28;12.65;;;10.95;;
25525;SDS011;13424;48.424;11.258;2022-07-23T09:01:54;12.93;;;10.93;;
25525;SDS011;13424;48.424;11.258;2022-07-23T09:04:20;12.13;;;10.90;;
25525;SDS011;13424;48.424;11.258;2022-07-23T09:06:46;13.68;;;11.68;;
25525;SDS011;13424;48.424;11.258;2022-07-23T09:09:19;13.88;;;11.23;;
25525;SDS011;13424;48.424;11.258;2022-07-23T09:11:47;13.15;;;11.65;;
25525;SDS011;13424;48.424;11.258;2022-07-23T09:14:40;13.02;;;10.93;;
25525;SDS011;13424;48.424;11.258;2022-07-23T09:17:16;12.07;;;10.80;;
25525;SDS011;13424;48.424;11.258;2022-07-23T09:19:44;13.15;;;11.80;;
25525;SDS011;13424;48.424;11.258;2022-07-23T09:22:24;14.93;;;11.43;;
25525;SDS011;13424;48.424;11.258;2022-07-23T09:25:13;13.07;;;11.52;;
25525;SDS011;13424;48.424;11.258;2022-07-23T09:27:58;12.77;;;10.45;;
25525;SDS011;13424;48.424;11.258;2022-07-23T09:30:30;12.05;;;10.85;;
25525;SDS011;13424;48.424;11.258;2022-07-23T09:33:10;11.60;;;10.40;;
25525;SDS011;13424;48.424;11.258;2022-07-23T09:38:24;14.13;;;11.20;;
25525;SDS011;13424;48.424;11.258;2022-07-23T09:41:09;14.10;;;10.70;;
25525;SDS011;13424;48.424;11.258;2022-07-23T09:43:36;13.15;;;9.80;;
25525;SDS011;13424;48.424;11.258;2022-07-23T09:46:26;11.98;;;10.77;;
25525;SDS011;13424;48.424;11.258;2022-07-23T09:48:54;12.27;;;11.17;;
25525;SDS011;13424;48.424;11.258;2022-07-23T09:51:25;14.43;;;11.43;;
25525;SDS011;13424;48.424;11.258;2022-07-23T09:53:57;14.65;;;10.70;;
25525;SDS011;13424;48.424;11.258;2022-07-23T09:56:23;11.70;;;10.52;;
25525;SDS011;13424;48.424;11.258;2022-07-23T09:58:53;13.32;;;10.65;;
25525;SDS011;13424;48.424;11.258;2022-07-23T10:01:37;13.43;;;10.95;;
25525;SDS011;13424;48.424;11.258;2022-07-23T10:04:04;12.10;;;9.77;;
25525;SDS011;13424;48.424;11.258;2022-07-23T10:07:04;11.63;;;8.98;;
25525;SDS011;13424;48.424;11.258;2022-07-23T10:09:51;10.85;;;9.60;;
25525;SDS011;13424;48.424;11.258;2022-07-23T10:12:37;10.02;;;8.90;;
25525;SDS011;13424;48.424;11.258;2022-07-23T10:15:21;9.73;;;8.73;;
25525;SDS011;13424;48.424;11.258;2022-07-23T10:17:48;9.23;;;8.30;;
25525;SDS011;13424;48.424;11.258;2022-07-23T10:20:15;11.82;;;9.18;;
25525;SDS011;13424;48.424;11.258;2022-07-23T10:22:50;11.07;;;9.65;;
25525;SDS011;13424;48.424;11.258;2022-07-23T10:32:07;10.23;;;9.05;;
25525;SDS011;13424;48.424;11.258;2022-07-23T10:34:55;9.60;;;8.60;;
25525;SDS011;13424;48.424;11.258;2022-07-23T10:37:47;9.60;;;8.23;;
25525;SDS011;13424;48.424;11.258;2022-07-23T10:40:21;10.13;;;8.63;;
25525;SDS011;13424;48.424;11.258;2022-07-23T10:42:50;11.18;;;10.07;;
25525;SDS011;13424;48.424;11.258;2022-07-23T10:56:49;11.98;;;9.52;;
25525;SDS011;13424;48.424;11.258;2022-07-23T10:59:22;9.60;;;8.65;;
25525;SDS011;13424;48.424;11.258;2022-07-23T11:01:48;12.45;;;9.18;;
25525;SDS011;13424;48.424;11.258;2022-07-23T11:04:16;10.38;;;9.38;;
25525;SDS011;13424;48.424;11.258;2022-07-23T11:22:40;10.40;;;9.40;;
25525;SDS011;13424;48.424;11.258;2022-07-23T11:27:47;11.35;;;9.25;;
25525;SDS011;13424;48.424;11.258;2022-07-23T11:32:53;10.13;;;9.13;;
25525;SDS011;13424;48.424;11.258;2022-07-23T11:35:36;9.50;;;8.50;;
25525;SDS011;13424;48.424;11.258;2022-07-23T11:38:19;12.05;;;10.15;;
25525;SDS011;13424;48.424;11.258;2022-07-23T11:40:54;13.90;;;10.35;;
25525;SDS011;13424;48.424;11.258;2022-07-23T11:43:24;10.07;;;9.07;;
25525;SDS011;13424;48.424;11.258;2022-07-23T11:45:53;9.68;;;8.82;;
25525;SDS011;13424;48.424;11.258;2022-07-23T11:48:26;10.10;;;8.80;;
25525;SDS011;13424;48.424;11.258;2022-07-23T11:50:57;13.10;;;9.88;;
25525;SDS011;13424;48.424;11.258;2022-07-23T11:53:33;10.15;;;9.15;;
25525;SDS011;13424;48.424;11.258;2022-07-23T11:56:06;11.60;;;10.57;;
25525;SDS011;13424;48.424;11.258;2022-07-23T11:58:35;10.75;;;9.13;;
25525;SDS011;13424;48.424;11.258;2022-07-23T12:01:02;10.55;;;9.18;;
25525;SDS011;13424;48.424;11.258;2022-07-23T12:03:29;11.05;;;9.80;;
25525;SDS011;13424;48.424;11.258;2022-07-23T12:05:56;12.52;;;9.05;;
25525;SDS011;13424;48.424;11.258;2022-07-23T12:08:23;12.38;;;9.75;;
25525;SDS011;13424;48.424;11.258;2022-07-23T12:10:49;10.15;;;9.10;;
25525;SDS011;13424;48.424;11.258;2022-07-23T12:13:18;10.88;;;9.50;;
25525;SDS011;13424;48.424;11.258;2022-07-23T12:18:25;10.57;;;9.27;;
25525;SDS011;13424;48.424;11.258;2022-07-23T12:20:57;10.23;;;9.23;;
25525;SDS011;13424;48.424;11.258;2022-07-23T12:23:28;10.25;;;8.98;;
25525;SDS011;13424;48.424;11.258;2022-07-23T12:25:54;10.80;;;9.80;;
25525;SDS011;13424;48.424;11.258;2022-07-23T12:28:29;10.23;;;9.07;;
25525;SDS011;13424;48.424;11.258;2022-07-23T12:31:04;16.33;;;10.57;;
25525;SDS011;13424;48.424;11.258;2022-07-23T12:33:40;17.42;;;10.15;;
25525;SDS011;13424;48.424;11.258;2022-07-23T12:36:08;11.18;;;9.60;;
25525;SDS011;13424;48.424;11.258;2022-07-23T12:38:43;10.98;;;9.88;;
25525;SDS011;13424;48.424;11.258;2022-07-23T12:41:16;10.85;;;9.85;;
25525;SDS011;13424;48.424;11.258;2022-07-23T12:43:44;11.35;;;10.25;;
25525;SDS011;13424;48.424;11.258;2022-07-23T12:46:43;11.15;;;9.90;;
25525;SDS011;13424;48.424;11.258;2022-07-23T12:49:27;12.07;;;10.27;;
25525;SDS011;13424;48.424;11.258;2022-07-23T12:51:53;10.88;;;9.73;;
25525;SDS011;13424;48.424;11.258;2022-07-23T12:54:26;11.82;;;10.73;;
25525;SDS011;13424;48.424;11.258;2022-07-23T12:56:53;12.23;;;11.13;;
25525;SDS011;13424;48.424;11.258;2022-07-23T12:59:19;12.85;;;11.25;;
25525;SDS011;13424;48.424;11.258;2022-07-23T13:04:49;13.10;;;10.93;;
25525;SDS011;13424;48.424;11.258;2022-07-23T13:07:15;13.30;;;10.68;;
25525;SDS011;13424;48.424;11.258;2022-07-23T13:09:41;13.13;;;11.82;;
25525;SDS011;13424;48.424;11.258;2022-07-23T13:12:07;12.10;;;10.90;;
25525;SDS011;13424;48.424;11.258;2022-07-23T13:14:34;11.52;;;10.30;;
25525;SDS011;13424;48.424;11.258;2022-07-23T13:17:00;12.77;;;11.48;;
25525;SDS011;13424;48.424;11.258;2022-07-23T13:19:26;11.77;;;10.60;;
25525;SDS011;13424;48.424;11.258;2022-07-23T13:21:52;12.43;;;11.13;;
25525;SDS011;13424;48.424;11.258;2022-07-23T13:24:18;13.60;;;11.13;;
25525;SDS011;13424;48.424;11.258;2022-07-23T13:26:45;15.45;;;11.20;;
25525;SDS011;13424;48.424;11.258;2022-07-23T13:29:12;12.52;;;10.55;;
25525;SDS011;13424;48.424;11.258;2022-07-23T13:31:38;14.38;;;10.30;;
25525;SDS011;13424;48.424;11.258;2022-07-23T13:34:04;11.65;;;10.55;;
25525;SDS011;13424;48.424;11.258;2022-07-23T13:36:31;13.20;;;11.60;;
25525;SDS011;13424;48.424;11.258;2022-07-23T13:38:57;11.63;;;10.52;;
25525;SDS011;13424;48.424;11.258;2022-07-23T13:41:23;13.05;;;11.85;;
25525;SDS011;13424;48.424;11.258;2022-07-23T13:43:49;12.80;;;11.50;;
25525;SDS011;13424;48.424;11.258;2022-07-23T13:46:15;14.88;;;11.23;;
25525;SDS011;13424;48.424;11.258;2022-07-23T13:48:41;11.77;;;10.57;;
25525;SDS011;13424;48.424;11.258;2022-07-23T13:51:08;13.65;;;11.48;;
25525;SDS011;13424;48.424;11.258;2022-07-23T13:57:00;12.85;;;11.52;;
25525;SDS011;13424;48.424;11.258;2022-07-23T13:59:26;11.98;;;10.80;;
25525;SDS011;13424;48.424;11.258;2022-07-23T14:01:52;13.07;;;11.32;;
25525;SDS011;13424;48.424;11.258;2022-07-23T14:04:20;12.55;;;11.35;;
25525;SDS011;13424;48.424;11.258;2022-07-23T14:06:47;13.63;;;12.15;;
25525;SDS011;13424;48.424;11.258;2022-07-23T14:09:13;12.70;;;11.40;;
25525;SDS011;13424;48.424;11.258;2022-07-23T14:11:39;12.40;;;11.05;;
25525;SDS011;13424;48.424;11.258;2022-07-23T14:14:05;12.80;;;11.27;;
25525;SDS011;13424;48.424;11.258;2022-07-23T14:16:31;13.55;;;12.15;;
25525;SDS011;13424;48.424;11.258;2022-07-23T14:23:22;12.57;;;11.32;;
25525;SDS011;13424;48.424;11.258;2022-07-23T14:25:48;15.73;;;12.40;;
25525;SDS011;13424;48.424;11.258;2022-07-23T14:28:14;13.63;;;11.95;;
25525;SDS011;13424;48.424;11.258;2022-07-23T14:30:40;12.98;;;11.75;;
25525;SDS011;13424;48.424;11.258;2022-07-23T14:33:07;14.77;;;12.52;;
25525;SDS011;13424;48.424;11.258;2022-07-23T14:35:33;11.85;;;10.65;;
25525;SDS011;13424;48.424;11.258;2022-07-23T14:37:59;11.43;;;9.45;;
25525;SDS011;13424;48.424;11.258;2022-07-23T14:40:25;13.15;;;9.27;;
25525;SDS011;13424;48.424;11.258;2022-07-23T14:42:51;11.38;;;9.52;;
25525;SDS011;13424;48.424;11.258;2022-07-23T14:45:17;9.75;;;8.85;;
25525;SDS011;13424;48.424;11.258;2022-07-23T14:47:43;10.63;;;8.98;;
25525;SDS011;13424;48.424;11.258;2022-07-23T14:50:09;9.10;;;8.30;;
25525;SDS011;13424;48.424;11.258;2022-07-23T14:52:35;9.63;;;8.35;;
25525;SDS011;13424;48.424;11.258;2022-07-23T14:55:11;9.25;;;8.35;;
25525;SDS011;13424;48.424;11.258;2022-07-23T14:57:37;9.95;;;8.85;;
25525;SDS011;13424;48.424;11.258;2022-07-23T15:00:04;10.15;;;9.25;;
25525;SDS011;13424;48.424;11.258;2022-07-23T15:02:31;9.68;;;8.50;;
25525;SDS011;13424;48.424;11.258;2022-07-23T15:04:57;10.05;;;8.98;;
25525;SDS011;13424;48.424;11.258;2022-07-23T15:07:27;10.18;;;9.27;;
25525;SDS011;13424;48.424;11.258;2022-07-23T15:09:54;12.57;;;10.40;;
25525;SDS011;13424;48.424;11.258;2022-07-23T15:12:21;10.73;;;9.63;;
25525;SDS011;13424;48.424;11.258;2022-07-23T15:14:47;9.98;;;9.05;;
25525;SDS011;13424;48.424;11.258;2022-07-23T15:17:14;11.65;;;10.00;;
25525;SDS011;13424;48.424;11.258;2022-07-23T15:19:41;11.18;;;10.07;;
25525;SDS011;13424;48.424;11.258;2022-07-23T15:22:07;12.52;;;11.20;;
25525;SDS011;13424;48.424;11.258;2022-07-23T15:24:33;11.93;;;10.05;;
25525;SDS011;13424;48.424;11.258;2022-07-23T15:26:59;10.93;;;9.82;;
25525;SDS011;13424;48.424;11.258;2022-07-23T15:29:25;12.65;;;10.63;;
25525;SDS011;13424;48.424;11.258;2022-07-23T15:31:51;12.55;;;10.40;;
25525;SDS011;13424;48.424;11.258;2022-07-23T15:34:17;10.75;;;9.73;;
25525;SDS011;13424;48.424;11.258;2022-07-23T15:36:43;10.77;;;9.68;;